sensor_id;sensor_type;location;lat;lon;timestamp;pressure;altitude;pressure_sealevel;temperature;humidity
17950;BME280;9100;48.700;9.316;2023-05-24T00:00:59;98029.8;;;15.53;100
17950;BME280;9100;48.700;9.316;2023-05-24T00:01:59;98033.2;;;15.54;100
17950;BME280;9100;48.700;9.316;2023-05-24T00:02:59;98037.59999999999;;;15.53;100
17950;BME280;9100;48.700;9.316;2023-05-24T00:03:59;98037.59999999999;;;15.53;100
17950;BME280;9100;48.700;9.316;2023-05-24T00:04:55;98036.8;;;15.53;100
17950;BME280;9100;48.700;9.316;2023-05-24T00:04:59;98036.8;;;15.53;100
17950;BME280;9100;48.700;9.316;2023-05-24T00:05:59;98039.20000000001;;;15.55;100
17950;BME280;9100;48.700;9.316;2023-05-24T00:06:59;98037.59999999999;;;15.53;100
17950;BME280;9100;48.700;9.316;2023-05-24T00:07:59;98035.2;;;15.52;100
17950;BME280;9100;48.700;9.316;2023-05-24T00:08:59;98041.09999999999;;;15.52;100
17950;BME280;9100;48.700;9.316;2023-05-24T00:09:55;98043.1;;;15.5;100
17950;BME280;9100;48.700;9.316;2023-05-24T00:09:59;98047.29999999999;;;15.51;100
17950;BME280;9100;48.700;9.316;2023-05-24T00:11:00;98038;;;15.5;100
17950;BME280;9100;48.700;9.316;2023-05-24T00:11:59;98038.4;;;15.47;100
17950;BME280;9100;48.700;9.316;2023-05-24T00:12:59;98033.2;;;15.47;100
17950;BME280;9100;48.700;9.316;2023-05-24T00:13:59;98037.8;;;15.45;100
17950;BME280;9100;48.700;9.316;2023-05-24T00:14:55;98032.6;;;15.45;100
17950;BME280;9100;48.700;9.316;2023-05-24T00:15:00;98038.8;;;15.44;100
17950;BME280;9100;48.700;9.316;2023-05-24T00:15:59;98026.5;;;15.46;100
17950;BME280;9100;48.700;9.316;2023-05-24T00:16:59;98034.2;;;15.46;100
17950;BME280;9100;48.700;9.316;2023-05-24T00:18:00;98033.2;;;15.47;100
17950;BME280;9100;48.700;9.316;2023-05-24T00:18:59;98034.79999999999;;;15.48;100
17950;BME280;9100;48.700;9.316;2023-05-24T00:19:55;98030.4;;;15.49;100
17950;BME280;9100;48.700;9.316;2023-05-24T00:19:59;98029.6;;;15.48;100
17950;BME280;9100;48.700;9.316;2023-05-24T00:20:59;98027.70000000001;;;15.5;100
17950;BME280;9100;48.700;9.316;2023-05-24T00:21:59;98038.59999999999;;;15.52;100
17950;BME280;9100;48.700;9.316;2023-05-24T00:22:59;98037.59999999999;;;15.53;100
17950;BME280;9100;48.700;9.316;2023-05-24T00:23:59;98029.3;;;15.51;100
17950;BME280;9100;48.700;9.316;2023-05-24T00:24:55;98029.8;;;15.53;100
17950;BME280;9100;48.700;9.316;2023-05-24T00:24:59;98028.2;;;15.52;100
17950;BME280;9100;48.700;9.316;2023-05-24T00:26:00;98031.6;;;15.53;100
17950;BME280;9100;48.700;9.316;2023-05-24T00:26:59;98028.2;;;15.52;100
17950;BME280;9100;48.700;9.316;2023-05-24T00:27:59;98029.3;;;15.51;100
17950;BME280;9100;48.700;9.316;2023-05-24T00:28:59;98030.2;;;15.5;100
17950;BME280;9100;48.700;9.316;2023-05-24T00:29:55;98020.3;;;15.47;100
17950;BME280;9100;48.700;9.316;2023-05-24T00:30:00;98020.3;;;15.47;100
17950;BME280;9100;48.700;9.316;2023-05-24T00:31:00;98026.9;;;15.5;100
17950;BME280;9100;48.700;9.316;2023-05-24T00:31:59;98019.3;;;15.48;100
17950;BME280;9100;48.700;9.316;2023-05-24T00:32:59;98020.7;;;15.51;100
17950;BME280;9100;48.700;9.316;2023-05-24T00:34:00;98023.29999999999;;;15.51;100
17950;BME280;9100;48.700;9.316;2023-05-24T00:34:55;98026.09999999999;;;15.49;100
17950;BME280;9100;48.700;9.316;2023-05-24T00:35:00;98015.8;;;15.49;100
17950;BME280;9100;48.700;9.316;2023-05-24T00:35:59;98024.1;;;15.51;100
17950;BME280;9100;48.700;9.316;2023-05-24T00:37:00;98026.9;;;15.5;100
17950;BME280;9100;48.700;9.316;2023-05-24T00:38:00;98021.90000000001;;;15.48;100
17950;BME280;9100;48.700;9.316;2023-05-24T00:38:59;98018.9;;;15.45;100
17950;BME280;9100;48.700;9.316;2023-05-24T00:39:55;98022.5;;;15.44;100
17950;BME280;9100;48.700;9.316;2023-05-24T00:39:59;98014;;;15.43;100
17950;BME280;9100;48.700;9.316;2023-05-24T00:40:59;98020.7;;;15.44;100
17950;BME280;9100;48.700;9.316;2023-05-24T00:41:59;98016.6;;;15.43;100
17950;BME280;9100;48.700;9.316;2023-05-24T00:42:59;98013.4;;;15.41;100
17950;BME280;9100;48.700;9.316;2023-05-24T00:43:59;98022.1;;;15.4;100
17950;BME280;9100;48.700;9.316;2023-05-24T00:44:55;98020.5;;;15.39;100
17950;BME280;9100;48.700;9.316;2023-05-24T00:44:59;98015.4;;;15.39;100
17950;BME280;9100;48.700;9.316;2023-05-24T00:46:08;98020.3;;;15.41;100
17950;BME280;9100;48.700;9.316;2023-05-24T00:46:59;98018.5;;;15.41;100
17950;BME280;9100;48.700;9.316;2023-05-24T00:47:59;98018.5;;;15.41;100
17950;BME280;9100;48.700;9.316;2023-05-24T00:48:59;98014.8;;;15.37;100
17950;BME280;9100;48.700;9.316;2023-05-24T00:49:55;98018.5;;;15.35;100
17950;BME280;9100;48.700;9.316;2023-05-24T00:49:59;98013.4;;;15.35;100
17950;BME280;9100;48.700;9.316;2023-05-24T00:50:59;98010.79999999999;;;15.35;100
17950;BME280;9100;48.700;9.316;2023-05-24T00:51:59;98010.2;;;15.33;100
17950;BME280;9100;48.700;9.316;2023-05-24T00:53:00;98011.2;;;15.32;100
17950;BME280;9100;48.700;9.316;2023-05-24T00:54:00;98013;;;15.31;100
17950;BME280;9100;48.700;9.316;2023-05-24T00:54:55;98011.6;;;15.29;100
17950;BME280;9100;48.700;9.316;2023-05-24T00:54:59;98017.6;;;15.29;100
17950;BME280;9100;48.700;9.316;2023-05-24T00:55:59;98014.20000000001;;;15.29;100
17950;BME280;9100;48.700;9.316;2023-05-24T00:56:59;98011.40000000001;;;15.3;100
17950;BME280;9100;48.700;9.316;2023-05-24T00:57:59;98012.40000000001;;;15.29;100
17950;BME280;9100;48.700;9.316;2023-05-24T00:58:59;98014.20000000001;;;15.29;100
17950;BME280;9100;48.700;9.316;2023-05-24T00:59:55;98012.59999999999;;;15.28;100
17950;BME280;9100;48.700;9.316;2023-05-24T00:59:59;98009.40000000001;;;15.26;100
17950;BME280;9100;48.700;9.316;2023-05-24T01:01:00;98016.2;;;15.27;100
17950;BME280;9100;48.700;9.316;2023-05-24T01:01:59;98017.4;;;15.24;100
17950;BME280;9100;48.700;9.316;2023-05-24T01:02:59;98020.3;;;15.21;100
17950;BME280;9100;48.700;9.316;2023-05-24T01:03:59;98022.29999999999;;;15.19;100
17950;BME280;9100;48.700;9.316;2023-05-24T01:04:55;98020.1;;;15.16;100
17950;BME280;9100;48.700;9.316;2023-05-24T01:05:00;98017.6;;;15.16;100
17950;BME280;9100;48.700;9.316;2023-05-24T01:06:01;98020.9;;;15.17;100
17950;BME280;9100;48.700;9.316;2023-05-24T01:07:03;98020.9;;;15.17;100
17950;BME280;9100;48.700;9.316;2023-05-24T01:08:01;98016.6;;;15.17;100
17950;BME280;9100;48.700;9.316;2023-05-24T01:09:03;98020.1;;;15.16;100
17950;BME280;9100;48.700;9.316;2023-05-24T01:09:58;98017;;;15.14;100
17950;BME280;9100;48.700;9.316;2023-05-24T01:10:02;98016.2;;;15.14;100
17950;BME280;9100;48.700;9.316;2023-05-24T01:11:00;98017;;;15.14;100
17950;BME280;9100;48.700;9.316;2023-05-24T01:12:05;98017;;;15.14;100
17950;BME280;9100;48.700;9.316;2023-05-24T01:13:00;98020.5;;;15.13;100
17950;BME280;9100;48.700;9.316;2023-05-24T01:14:01;98017.2;;;15.13;100
17950;BME280;9100;48.700;9.316;2023-05-24T01:14:57;98016.4;;;15.12;100
17950;BME280;9100;48.700;9.316;2023-05-24T01:15:06;98014.59999999999;;;15.13;100
17950;BME280;9100;48.700;9.316;2023-05-24T01:16:02;98017;;;15.14;100
17950;BME280;9100;48.700;9.316;2023-05-24T01:17:01;98017.6;;;15.16;100
17950;BME280;9100;48.700;9.316;2023-05-24T01:18:00;98021.1;;;15.15;100
17950;BME280;9100;48.700;9.316;2023-05-24T01:19:01;98018.5;;;15.15;100
17950;BME280;9100;48.700;9.316;2023-05-24T01:19:55;98016;;;15.15;100
17950;BME280;9100;48.700;9.316;2023-05-24T01:20:01;98016.2;;;15.14;100
17950;BME280;9100;48.700;9.316;2023-05-24T01:21:00;98020.3;;;15.15;100
17950;BME280;9100;48.700;9.316;2023-05-24T01:22:00;98025.7;;;15.13;100
17950;BME280;9100;48.700;9.316;2023-05-24T01:23:04;98020.9;;;15.1;100
17950;BME280;9100;48.700;9.316;2023-05-24T01:24:02;98022.7;;;15.1;100
17950;BME280;9100;48.700;9.316;2023-05-24T01:24:58;98022.90000000001;;;15.08;100
17950;BME280;9100;48.700;9.316;2023-05-24T01:25:01;98026.5;;;15.07;100
17950;BME280;9100;48.700;9.316;2023-05-24T01:26:02;98020.3;;;15.08;100
17950;BME280;9100;48.700;9.316;2023-05-24T01:27:03;98014.59999999999;;;15.06;100
17950;BME280;9100;48.700;9.316;2023-05-24T01:28:00;98019.7;;;15.06;100
17950;BME280;9100;48.700;9.316;2023-05-24T01:28:59;98021.5;;;15.05;100
17950;BME280;9100;48.700;9.316;2023-05-24T01:29:55;98021.7;;;15.04;100
17950;BME280;9100;48.700;9.316;2023-05-24T01:29:59;98020.1;;;15.03;100
17950;BME280;9100;48.700;9.316;2023-05-24T01:30:59;98026.9;;;15.04;100
17950;BME280;9100;48.700;9.316;2023-05-24T01:32:00;98019.3;;;15.02;100
17950;BME280;9100;48.700;9.316;2023-05-24T01:32:59;98024.7;;;15.01;100
17950;BME280;9100;48.700;9.316;2023-05-24T01:33:59;98024.7;;;15.01;100
17950;BME280;9100;48.700;9.316;2023-05-24T01:34:55;98022.29999999999;;;14.99;100
17950;BME280;9100;48.700;9.316;2023-05-24T01:34:59;98027.3;;;15.01;100
17950;BME280;9100;48.700;9.316;2023-05-24T01:35:59;98023.1;;;15;100
17950;BME280;9100;48.700;9.316;2023-05-24T01:36:59;98023.90000000001;;;15;100
17950;BME280;9100;48.700;9.316;2023-05-24T01:37:59;98025.09999999999;;;14.98;100
17950;BME280;9100;48.700;9.316;2023-05-24T01:38:59;98020.9;;;14.97;100
17950;BME280;9100;48.700;9.316;2023-05-24T01:39:55;98022.90000000001;;;14.95;100
17950;BME280;9100;48.700;9.316;2023-05-24T01:39:59;98025.5;;;14.95;100
17950;BME280;9100;48.700;9.316;2023-05-24T01:41:00;98023.1;;;14.93;100
17950;BME280;9100;48.700;9.316;2023-05-24T01:42:03;98015.8;;;14.9;100
17950;BME280;9100;48.700;9.316;2023-05-24T01:43:02;98021.3;;;14.87;100
17950;BME280;9100;48.700;9.316;2023-05-24T01:44:02;98018.1;;;14.85;100
17950;BME280;9100;48.700;9.316;2023-05-24T01:44:57;98022.5;;;14.85;100
17950;BME280;9100;48.700;9.316;2023-05-24T01:45:02;98024.1;;;14.86;100
17950;BME280;9100;48.700;9.316;2023-05-24T01:46:02;98021.5;;;14.86;100
17950;BME280;9100;48.700;9.316;2023-05-24T01:47:00;98013.8;;;14.86;100
17950;BME280;9100;48.700;9.316;2023-05-24T01:48:01;98023.5;;;14.84;100
17950;BME280;9100;48.700;9.316;2023-05-24T01:49:02;98022.5;;;14.85;100
17950;BME280;9100;48.700;9.316;2023-05-24T01:49:56;98020.9;;;14.84;100
17950;BME280;9100;48.700;9.316;2023-05-24T01:50:01;98022.5;;;14.85;100
17950;BME280;9100;48.700;9.316;2023-05-24T01:51:00;98025.7;;;14.87;100
17950;BME280;9100;48.700;9.316;2023-05-24T01:52:00;98025.7;;;14.87;100
17950;BME280;9100;48.700;9.316;2023-05-24T01:53:01;98020.5;;;14.87;100
17950;BME280;9100;48.700;9.316;2023-05-24T01:53:59;98020.5;;;14.87;100
17950;BME280;9100;48.700;9.316;2023-05-24T01:54:55;98019.7;;;14.86;100
17950;BME280;9100;48.700;9.316;2023-05-24T01:55:00;98023.1;;;14.87;100
17950;BME280;9100;48.700;9.316;2023-05-24T01:56:00;98018.9;;;14.86;100
17950;BME280;9100;48.700;9.316;2023-05-24T01:56:59;98021.7;;;14.84;100
17950;BME280;9100;48.700;9.316;2023-05-24T01:58:00;98023.29999999999;;;14.85;100
17950;BME280;9100;48.700;9.316;2023-05-24T01:58:59;98018.1;;;14.85;100
17950;BME280;9100;48.700;9.316;2023-05-24T01:59:55;98023.5;;;14.84;100
17950;BME280;9100;48.700;9.316;2023-05-24T01:59:59;98019.3;;;14.83;100
17950;BME280;9100;48.700;9.316;2023-05-24T02:00:59;98015.8;;;14.84;100
17950;BME280;9100;48.700;9.316;2023-05-24T02:01:59;98017.4;;;14.85;100
17950;BME280;9100;48.700;9.316;2023-05-24T02:03:00;98027.70000000001;;;14.85;100
17950;BME280;9100;48.700;9.316;2023-05-24T02:03:59;98024.5;;;14.83;100
17950;BME280;9100;48.700;9.316;2023-05-24T02:04:55;98019.5;;;14.81;100
17950;BME280;9100;48.700;9.316;2023-05-24T02:04:59;98017.7;;;14.82;100
17950;BME280;9100;48.700;9.316;2023-05-24T02:06:00;98017.7;;;14.82;100
17950;BME280;9100;48.700;9.316;2023-05-24T02:06:59;98021.3;;;14.81;100
17950;BME280;9100;48.700;9.316;2023-05-24T02:07:59;98021.3;;;14.81;100
17950;BME280;9100;48.700;9.316;2023-05-24T02:08:59;98020.5;;;14.8;100
17950;BME280;9100;48.700;9.316;2023-05-24T02:09:55;98010.79999999999;;;14.76;100
17950;BME280;9100;48.700;9.316;2023-05-24T02:09:59;98020.1;;;14.77;100
17950;BME280;9100;48.700;9.316;2023-05-24T02:10:59;98019.5;;;14.75;100
17950;BME280;9100;48.700;9.316;2023-05-24T02:11:59;98018.1;;;14.72;100
17950;BME280;9100;48.700;9.316;2023-05-24T02:13:00;98019.9;;;14.72;100
17950;BME280;9100;48.700;9.316;2023-05-24T02:13:59;98019.3;;;14.7;100
17950;BME280;9100;48.700;9.316;2023-05-24T02:14:55;98016.7;;;14.7;100
17950;BME280;9100;48.700;9.316;2023-05-24T02:14:59;97986.8;;;14.42;100
17950;BME280;9100;48.700;9.316;2023-05-24T02:16:00;98027;;;14.7;100
17950;BME280;9100;48.700;9.316;2023-05-24T02:16:59;98028;;;14.69;100
17950;BME280;9100;48.700;9.316;2023-05-24T02:18:00;98030;;;14.67;100
17950;BME280;9100;48.700;9.316;2023-05-24T02:18:59;98026.8;;;14.65;100
17950;BME280;9100;48.700;9.316;2023-05-24T02:19:55;98027.8;;;14.64;100
17950;BME280;9100;48.700;9.316;2023-05-24T02:19:59;98035.5;;;14.64;100
17950;BME280;9100;48.700;9.316;2023-05-24T02:21:00;98030.4;;;14.64;100
17950;BME280;9100;48.700;9.316;2023-05-24T02:21:59;98026.59999999999;;;14.6;100
17950;BME280;9100;48.700;9.316;2023-05-24T02:23:00;98027.59999999999;;;14.59;100
17950;BME280;9100;48.700;9.316;2023-05-24T02:23:59;98018.3;;;14.58;100
17950;BME280;9100;48.700;9.316;2023-05-24T02:24:55;98022.79999999999;;;14.55;100
17950;BME280;9100;48.700;9.316;2023-05-24T02:24:59;98023.40000000001;;;14.58;100
17950;BME280;9100;48.700;9.316;2023-05-24T02:25:59;98024.40000000001;;;14.56;100
17950;BME280;9100;48.700;9.316;2023-05-24T02:26:59;98026.59999999999;;;14.53;100
17950;BME280;9100;48.700;9.316;2023-05-24T02:28:00;98023.2;;;14.52;100
17950;BME280;9100;48.700;9.316;2023-05-24T02:28:59;98026;;;14.51;100
17950;BME280;9100;48.700;9.316;2023-05-24T02:29:55;98021.8;;;14.5;100
17950;BME280;9100;48.700;9.316;2023-05-24T02:29:59;98032.9;;;14.5;100
17950;BME280;9100;48.700;9.316;2023-05-24T02:30:59;98020.9;;;14.51;100
17950;BME280;9100;48.700;9.316;2023-05-24T02:31:59;98026;;;14.51;100
17950;BME280;9100;48.700;9.316;2023-05-24T02:33:01;98025.2;;;14.5;100
17950;BME280;9100;48.700;9.316;2023-05-24T02:33:59;98026.2;;;14.49;100
17950;BME280;9100;48.700;9.316;2023-05-24T02:34:55;98025.59999999999;;;14.47;100
17950;BME280;9100;48.700;9.316;2023-05-24T02:34:59;98029.7;;;14.48;100
17950;BME280;9100;48.700;9.316;2023-05-24T02:35:59;98029.9;;;14.47;100
17950;BME280;9100;48.700;9.316;2023-05-24T02:36:59;98031.1;;;14.44;100
17950;BME280;9100;48.700;9.316;2023-05-24T02:37:59;98028.5;;;14.44;100
17950;BME280;9100;48.700;9.316;2023-05-24T02:38:59;98035.7;;;14.42;100
17950;BME280;9100;48.700;9.316;2023-05-24T02:39:55;98033.5;;;14.39;100
17950;BME280;9100;48.700;9.316;2023-05-24T02:39:59;98025.8;;;14.39;100
17950;BME280;9100;48.700;9.316;2023-05-24T02:40:59;98027.5;;;14.39;100
17950;BME280;9100;48.700;9.316;2023-05-24T02:42:00;98023.6;;;14.36;100
17950;BME280;9100;48.700;9.316;2023-05-24T02:42:59;98028.7;;;14.36;100
17950;BME280;9100;48.700;9.316;2023-05-24T02:43:59;98032.9;;;14.37;100
17950;BME280;9100;48.700;9.316;2023-05-24T02:44:55;98026.3;;;14.35;100
17950;BME280;9100;48.700;9.316;2023-05-24T02:44:59;98026.3;;;14.35;100
17950;BME280;9100;48.700;9.316;2023-05-24T02:45:59;98030.7;;;14.34;100
17950;BME280;9100;48.700;9.316;2023-05-24T02:46:59;98023.90000000001;;;14.33;100
17950;BME280;9100;48.700;9.316;2023-05-24T02:47:59;98023.90000000001;;;14.33;100
17950;BME280;9100;48.700;9.316;2023-05-24T02:48:59;98024.3;;;14.3;100
17950;BME280;9100;48.700;9.316;2023-05-24T02:49:55;98025.5;;;14.28;100
17950;BME280;9100;48.700;9.316;2023-05-24T02:49:59;98029.8;;;14.27;100
17950;BME280;9100;48.700;9.316;2023-05-24T02:50:59;98026.3;;;14.28;100
17950;BME280;9100;48.700;9.316;2023-05-24T02:51:59;98030.6;;;14.28;100
17950;BME280;9100;48.700;9.316;2023-05-24T02:52:59;98019.5;;;14.27;100
17950;BME280;9100;48.700;9.316;2023-05-24T02:53:59;98019.9;;;14.24;100
17950;BME280;9100;48.700;9.316;2023-05-24T02:54:55;98020.3;;;14.21;100
17950;BME280;9100;48.700;9.316;2023-05-24T02:55:00;98027.4;;;14.19;100
17950;BME280;9100;48.700;9.316;2023-05-24T02:56:00;98025.8;;;14.18;100
17950;BME280;9100;48.700;9.316;2023-05-24T02:57:00;98027.8;;;14.16;100
17950;BME280;9100;48.700;9.316;2023-05-24T02:58:00;98021.90000000001;;;14.16;100
17950;BME280;9100;48.700;9.316;2023-05-24T02:58:59;98023.90000000001;;;14.14;100
17950;BME280;9100;48.700;9.316;2023-05-24T02:59:55;98018.9;;;14.12;100
17950;BME280;9100;48.700;9.316;2023-05-24T02:59:59;98018.1;;;14.12;100
17950;BME280;9100;48.700;9.316;2023-05-24T03:01:00;98020.7;;;14.12;100
17950;BME280;9100;48.700;9.316;2023-05-24T03:02:00;98020.9;;;14.1;100
17950;BME280;9100;48.700;9.316;2023-05-24T03:03:00;98023.6;;;14.08;100
17950;BME280;9100;48.700;9.316;2023-05-24T03:03:59;98035.90000000001;;;14.06;100
17950;BME280;9100;48.700;9.316;2023-05-24T03:04:55;98030.1;;;14.04;100
17950;BME280;9100;48.700;9.316;2023-05-24T03:04:59;98035.29999999999;;;14.04;100
17950;BME280;9100;48.700;9.316;2023-05-24T03:05:59;98025;;;14.04;100
17950;BME280;9100;48.700;9.316;2023-05-24T03:07:00;98027.20000000001;;;14.01;100
17950;BME280;9100;48.700;9.316;2023-05-24T03:08:00;98024;;;13.99;100
17950;BME280;9100;48.700;9.316;2023-05-24T03:08:59;98023.40000000001;;;13.97;100
17950;BME280;9100;48.700;9.316;2023-05-24T03:09:55;98033.1;;;13.95;100
17950;BME280;9100;48.700;9.316;2023-05-24T03:09:59;98027.9;;;13.95;100
17950;BME280;9100;48.700;9.316;2023-05-24T03:10:59;98026.9;;;13.96;100
17950;BME280;9100;48.700;9.316;2023-05-24T03:11:59;98036.1;;;13.98;100
17950;BME280;9100;48.700;9.316;2023-05-24T03:12:59;98028.3;;;13.98;100
17950;BME280;9100;48.700;9.316;2023-05-24T03:13:59;98028.09999999999;;;14;100
17950;BME280;9100;48.700;9.316;2023-05-24T03:14:55;98031.7;;;13.99;100
17950;BME280;9100;48.700;9.316;2023-05-24T03:14:59;98021.40000000001;;;13.99;100
17950;BME280;9100;48.700;9.316;2023-05-24T03:16:00;98024.59999999999;;;14.01;100
17950;BME280;9100;48.700;9.316;2023-05-24T03:17:00;98023;;;14;100
17950;BME280;9100;48.700;9.316;2023-05-24T03:17:59;98024;;;13.99;100
17950;BME280;9100;48.700;9.316;2023-05-24T03:18:59;98025.40000000001;;;13.95;100
17950;BME280;9100;48.700;9.316;2023-05-24T03:19:55;98023;;;13.93;100
17950;BME280;9100;48.700;9.316;2023-05-24T03:19:59;98029.7;;;13.94;100
17950;BME280;9100;48.700;9.316;2023-05-24T03:20:59;98027.3;;;13.93;100
17950;BME280;9100;48.700;9.316;2023-05-24T03:21:59;98030.7;;;13.93;100
17950;BME280;9100;48.700;9.316;2023-05-24T03:22:59;98026.5;;;13.92;100
17950;BME280;9100;48.700;9.316;2023-05-24T03:23:59;98026.5;;;13.92;100
17950;BME280;9100;48.700;9.316;2023-05-24T03:24:55;98028.5;;;13.9;100
17950;BME280;9100;48.700;9.316;2023-05-24T03:24:59;98030.1;;;13.91;100
17950;BME280;9100;48.700;9.316;2023-05-24T03:25:59;98024.2;;;13.91;100
17950;BME280;9100;48.700;9.316;2023-05-24T03:27:00;98035.2;;;13.91;100
17950;BME280;9100;48.700;9.316;2023-05-24T03:28:00;98031.2;;;13.89;100
17950;BME280;9100;48.700;9.316;2023-05-24T03:28:59;98029.9;;;13.86;100
17950;BME280;9100;48.700;9.316;2023-05-24T03:29:55;98037.59999999999;;;13.86;100
17950;BME280;9100;48.700;9.316;2023-05-24T03:29:59;98033.2;;;13.87;100
17950;BME280;9100;48.700;9.316;2023-05-24T03:30:59;98030.4;;;13.88;100
17950;BME280;9100;48.700;9.316;2023-05-24T03:31:59;98028.9;;;13.87;100
17950;BME280;9100;48.700;9.316;2023-05-24T03:32:59;98028.3;;;13.85;100
17950;BME280;9100;48.700;9.316;2023-05-24T03:33:59;98030.4;;;13.82;100
17950;BME280;9100;48.700;9.316;2023-05-24T03:34:55;98030.6;;;13.8;100
17950;BME280;9100;48.700;9.316;2023-05-24T03:34:59;98034;;;13.81;100
17950;BME280;9100;48.700;9.316;2023-05-24T03:35:59;98034.3;;;13.78;100
17950;BME280;9100;48.700;9.316;2023-05-24T03:36:59;98030.2;;;13.77;100
17950;BME280;9100;48.700;9.316;2023-05-24T03:37:59;98031.2;;;13.76;100
17950;BME280;9100;48.700;9.316;2023-05-24T03:38:59;98030.8;;;13.72;100
17950;BME280;9100;48.700;9.316;2023-05-24T03:39:55;98023.2;;;13.71;100
17950;BME280;9100;48.700;9.316;2023-05-24T03:40:00;98026.59999999999;;;13.71;100
17950;BME280;9100;48.700;9.316;2023-05-24T03:41:00;98024.8;;;13.72;100
17950;BME280;9100;48.700;9.316;2023-05-24T03:41:59;98016.9;;;13.67;100
17950;BME280;9100;48.700;9.316;2023-05-24T03:42:59;98026.8;;;13.7;100
17950;BME280;9100;48.700;9.316;2023-05-24T03:43:59;98027.20000000001;;;13.67;100
17950;BME280;9100;48.700;9.316;2023-05-24T03:44:55;98023.2;;;13.64;100
17950;BME280;9100;48.700;9.316;2023-05-24T03:44:59;98026.59999999999;;;13.65;100
17950;BME280;9100;48.700;9.316;2023-05-24T03:45:59;98023.40000000001;;;13.63;100
17950;BME280;9100;48.700;9.316;2023-05-24T03:46:59;97983.3;;;13.34;100
17950;BME280;9100;48.700;9.316;2023-05-24T03:47:59;98024.7;;;13.58;100
17950;BME280;9100;48.700;9.316;2023-05-24T03:48:59;98023.2;;;13.57;100
17950;BME280;9100;48.700;9.316;2023-05-24T03:49:55;97961.6;;;13.15;100
17950;BME280;9100;48.700;9.316;2023-05-24T03:49:59;98033.5;;;13.57;100
17950;BME280;9100;48.700;9.316;2023-05-24T03:50:59;98031.9;;;13.56;100
17950;BME280;9100;48.700;9.316;2023-05-24T03:51:59;98029.3;;;13.56;100
17950;BME280;9100;48.700;9.316;2023-05-24T03:52:59;98033;;;13.54;100
17950;BME280;9100;48.700;9.316;2023-05-24T03:53:59;98037.40000000001;;;13.53;100
17950;BME280;9100;48.700;9.316;2023-05-24T03:54:55;98036;;;13.51;100
17950;BME280;9100;48.700;9.316;2023-05-24T03:55:00;98030.8;;;13.51;100
17950;BME280;9100;48.700;9.316;2023-05-24T03:56:00;98034.79999999999;;;13.53;100
17950;BME280;9100;48.700;9.316;2023-05-24T03:56:59;98030.6;;;13.52;100
17950;BME280;9100;48.700;9.316;2023-05-24T03:58:00;98035.79999999999;;;13.52;100
17950;BME280;9100;48.700;9.316;2023-05-24T03:58:59;98030.6;;;13.52;100
17950;BME280;9100;48.700;9.316;2023-05-24T03:59:55;98028.5;;;13.49;100
17950;BME280;9100;48.700;9.316;2023-05-24T03:59:59;98031.8;;;13.5;100
17950;BME280;9100;48.700;9.316;2023-05-24T04:00:59;98035.40000000001;;;13.49;100
17950;BME280;9100;48.700;9.316;2023-05-24T04:01:59;98038.9;;;13.48;100
17950;BME280;9100;48.700;9.316;2023-05-24T04:03:00;98040.09999999999;;;13.45;100
17950;BME280;9100;48.700;9.316;2023-05-24T04:04:00;98035.29999999999;;;13.42;100
17950;BME280;9100;48.700;9.316;2023-05-24T04:04:55;98036.90000000001;;;13.43;100
17950;BME280;9100;48.700;9.316;2023-05-24T04:04:59;98031;;;13.43;100
17950;BME280;9100;48.700;9.316;2023-05-24T04:05:59;98035.1;;;13.44;100
17950;BME280;9100;48.700;9.316;2023-05-24T04:06:59;98028.2;;;13.44;100
17950;BME280;9100;48.700;9.316;2023-05-24T04:08:00;98032.5;;;13.44;100
17950;BME280;9100;48.700;9.316;2023-05-24T04:09:00;98037.90000000001;;;13.42;100
17950;BME280;9100;48.700;9.316;2023-05-24T04:09:55;98035.29999999999;;;13.42;100
17950;BME280;9100;48.700;9.316;2023-05-24T04:09:59;98033.6;;;13.43;100
17950;BME280;9100;48.700;9.316;2023-05-24T04:10:59;98028.2;;;13.44;100
17950;BME280;9100;48.700;9.316;2023-05-24T04:11:59;98035.7;;;13.46;100
17950;BME280;9100;48.700;9.316;2023-05-24T04:12:59;98034.90000000001;;;13.45;100
17950;BME280;9100;48.700;9.316;2023-05-24T04:13:59;98036.5;;;13.46;100
17950;BME280;9100;48.700;9.316;2023-05-24T04:14:55;98031.4;;;13.46;100
17950;BME280;9100;48.700;9.316;2023-05-24T04:15:00;98032.2;;;13.47;100
17950;BME280;9100;48.700;9.316;2023-05-24T04:15:59;98033;;;13.47;100
17950;BME280;9100;48.700;9.316;2023-05-24T04:16:59;98032.8;;;13.49;100
17950;BME280;9100;48.700;9.316;2023-05-24T04:18:00;98033;;;13.47;100
17950;BME280;9100;48.700;9.316;2023-05-24T04:18:59;98032.4;;;13.45;100
17950;BME280;9100;48.700;9.316;2023-05-24T04:19:55;98027.4;;;13.44;100
17950;BME280;9100;48.700;9.316;2023-05-24T04:20:00;98029;;;13.45;100
17950;BME280;9100;48.700;9.316;2023-05-24T04:20:59;98026.59999999999;;;13.43;100
17950;BME280;9100;48.700;9.316;2023-05-24T04:21:59;98029.2;;;13.43;100
17950;BME280;9100;48.700;9.316;2023-05-24T04:23:00;98027.59999999999;;;13.42;100
17950;BME280;9100;48.700;9.316;2023-05-24T04:23:59;98033.7;;;13.41;100
17950;BME280;9100;48.700;9.316;2023-05-24T04:24:55;98023.7;;;13.4;100
17950;BME280;9100;48.700;9.316;2023-05-24T04:24:59;98024.40000000001;;;13.4;100
17950;BME280;9100;48.700;9.316;2023-05-24T04:25:59;98023.7;;;13.4;100
17950;BME280;9100;48.700;9.316;2023-05-24T04:27:00;98016;;;13.4;100
17950;BME280;9100;48.700;9.316;2023-05-24T04:27:59;98018.3;;;13.41;100
17950;BME280;9100;48.700;9.316;2023-05-24T04:28:59;98016.4;;;13.43;100
17950;BME280;9100;48.700;9.316;2023-05-24T04:29:55;98021.1;;;13.46;100
17950;BME280;9100;48.700;9.316;2023-05-24T04:29:59;98021.1;;;13.46;100
17950;BME280;9100;48.700;9.316;2023-05-24T04:30:59;98017.6;;;13.47;100
17950;BME280;9100;48.700;9.316;2023-05-24T04:32:00;98023.5;;;13.48;100
17950;BME280;9100;48.700;9.316;2023-05-24T04:32:59;98021.7;;;13.48;100
17950;BME280;9100;48.700;9.316;2023-05-24T04:33:59;98025.09999999999;;;13.49;100